sensor_id;sensor_type;location;lat;lon;timestamp;temperature;humidity
40287;DHT22;25998;46.604;13.610;2023-04-12T00:00:21;7.60;94.80
40287;DHT22;25998;46.604;13.610;2023-04-12T00:03:32;7.40;94.80
40287;DHT22;25998;46.604;13.610;2023-04-12T00:06:45;7.30;95.00
40287;DHT22;25998;46.604;13.610;2023-04-12T00:09:58;7.30;95.00
40287;DHT22;25998;46.604;13.610;2023-04-12T00:13:09;7.40;94.70
40287;DHT22;25998;46.604;13.610;2023-04-12T00:16:20;7.10;95.10
40287;DHT22;25998;46.604;13.610;2023-04-12T00:19:30;7.00;95.40
40287;DHT22;25998;46.604;13.610;2023-04-12T00:22:42;6.70;96.00
40287;DHT22;25998;46.604;13.610;2023-04-12T00:25:52;6.50;96.30
40287;DHT22;25998;46.604;13.610;2023-04-12T00:29:03;6.60;96.10
40287;DHT22;25998;46.604;13.610;2023-04-12T00:32:14;6.40;96.50
40287;DHT22;25998;46.604;13.610;2023-04-12T00:35:25;6.20;96.90
40287;DHT22;25998;46.604;13.610;2023-04-12T00:38:36;6.10;97.30
40287;DHT22;25998;46.604;13.610;2023-04-12T00:41:46;6.10;97.40
40287;DHT22;25998;46.604;13.610;2023-04-12T00:44:57;6.20;97.00
40287;DHT22;25998;46.604;13.610;2023-04-12T00:48:08;6.20;97.20
40287;DHT22;25998;46.604;13.610;2023-04-12T00:51:19;6.20;97.10
40287;DHT22;25998;46.604;13.610;2023-04-12T00:54:35;6.40;97.00
40287;DHT22;25998;46.604;13.610;2023-04-12T00:57:46;6.40;96.50
40287;DHT22;25998;46.604;13.610;2023-04-12T01:00:57;6.30;96.70
40287;DHT22;25998;46.604;13.610;2023-04-12T01:04:07;6.30;96.80
40287;DHT22;25998;46.604;13.610;2023-04-12T01:07:28;6.30;97.00
40287;DHT22;25998;46.604;13.610;2023-04-12T01:11:04;6.30;96.80
40287;DHT22;25998;46.604;13.610;2023-04-12T01:14:34;6.10;97.30
40287;DHT22;25998;46.604;13.610;2023-04-12T01:18:08;5.90;97.50
40287;DHT22;25998;46.604;13.610;2023-04-12T01:22:15;5.80;98.00
40287;DHT22;25998;46.604;13.610;2023-04-12T01:25:11;5.80;98.30
40287;DHT22;25998;46.604;13.610;2023-04-12T01:28:34;6.10;97.60
40287;DHT22;25998;46.604;13.610;2023-04-12T01:32:05;6.00;97.40
40287;DHT22;25998;46.604;13.610;2023-04-12T01:35:19;5.90;97.60
40287;DHT22;25998;46.604;13.610;2023-04-12T01:38:31;5.70;97.80
40287;DHT22;25998;46.604;13.610;2023-04-12T01:41:43;5.70;98.30
40287;DHT22;25998;46.604;13.610;2023-04-12T01:44:58;5.70;98.00
40287;DHT22;25998;46.604;13.610;2023-04-12T01:48:10;5.70;98.00
40287;DHT22;25998;46.604;13.610;2023-04-12T01:54:48;5.70;98.30
40287;DHT22;25998;46.604;13.610;2023-04-12T01:58:01;5.70;98.30
40287;DHT22;25998;46.604;13.610;2023-04-12T02:01:13;5.90;98.10
40287;DHT22;25998;46.604;13.610;2023-04-12T02:04:25;5.90;98.20
40287;DHT22;25998;46.604;13.610;2023-04-12T02:07:38;5.90;97.90
40287;DHT22;25998;46.604;13.610;2023-04-12T02:10:49;6.10;97.70
40287;DHT22;25998;46.604;13.610;2023-04-12T02:14:01;6.20;97.40
40287;DHT22;25998;46.604;13.610;2023-04-12T02:17:11;6.30;97.60
40287;DHT22;25998;46.604;13.610;2023-04-12T02:20:22;6.30;97.50
40287;DHT22;25998;46.604;13.610;2023-04-12T02:23:36;6.40;97.20
40287;DHT22;25998;46.604;13.610;2023-04-12T02:26:47;6.50;97.00
40287;DHT22;25998;46.604;13.610;2023-04-12T02:29:59;6.60;96.70
40287;DHT22;25998;46.604;13.610;2023-04-12T02:33:10;6.50;96.90
40287;DHT22;25998;46.604;13.610;2023-04-12T02:36:21;6.40;97.10
40287;DHT22;25998;46.604;13.610;2023-04-12T02:39:31;6.20;97.70
40287;DHT22;25998;46.604;13.610;2023-04-12T02:42:44;6.20;97.50
40287;DHT22;25998;46.604;13.610;2023-04-12T02:45:54;6.20;97.80
40287;DHT22;25998;46.604;13.610;2023-04-12T02:49:05;6.00;97.90
40287;DHT22;25998;46.604;13.610;2023-04-12T02:52:16;5.80;98.70
40287;DHT22;25998;46.604;13.610;2023-04-12T02:55:27;5.80;98.80
40287;DHT22;25998;46.604;13.610;2023-04-12T02:58:40;5.90;98.30
40287;DHT22;25998;46.604;13.610;2023-04-12T03:01:50;6.10;98.30
40287;DHT22;25998;46.604;13.610;2023-04-12T03:05:01;6.20;98.30
40287;DHT22;25998;46.604;13.610;2023-04-12T03:08:13;6.50;98.10
40287;DHT22;25998;46.604;13.610;2023-04-12T03:11:24;6.50;98.00
40287;DHT22;25998;46.604;13.610;2023-04-12T03:14:35;6.40;98.10
40287;DHT22;25998;46.604;13.610;2023-04-12T03:17:45;6.30;98.20
40287;DHT22;25998;46.604;13.610;2023-04-12T03:20:56;6.30;98.40
40287;DHT22;25998;46.604;13.610;2023-04-12T03:24:07;6.50;97.90
40287;DHT22;25998;46.604;13.610;2023-04-12T03:27:18;6.50;97.90
40287;DHT22;25998;46.604;13.610;2023-04-12T03:30:29;6.30;98.30
40287;DHT22;25998;46.604;13.610;2023-04-12T03:33:40;6.50;98.40
40287;DHT22;25998;46.604;13.610;2023-04-12T03:36:51;6.70;98.20
40287;DHT22;25998;46.604;13.610;2023-04-12T03:40:01;6.80;98.50
40287;DHT22;25998;46.604;13.610;2023-04-12T03:43:12;6.80;98.10
40287;DHT22;25998;46.604;13.610;2023-04-12T03:46:23;6.80;97.90
40287;DHT22;25998;46.604;13.610;2023-04-12T03:49:34;6.80;98.10
40287;DHT22;25998;46.604;13.610;2023-04-12T03:52:47;6.80;97.80
40287;DHT22;25998;46.604;13.610;2023-04-12T03:55:58;6.80;98.30
40287;DHT22;25998;46.604;13.610;2023-04-12T03:59:09;6.90;98.50
40287;DHT22;25998;46.604;13.610;2023-04-12T04:02:20;7.00;98.60
40287;DHT22;25998;46.604;13.610;2023-04-12T04:05:31;6.90;98.30
40287;DHT22;25998;46.604;13.610;2023-04-12T04:08:42;6.90;98.30
40287;DHT22;25998;46.604;13.610;2023-04-12T04:11:54;6.90;98.20
40287;DHT22;25998;46.604;13.610;2023-04-12T04:15:05;7.00;98.00
40287;DHT22;25998;46.604;13.610;2023-04-12T04:18:17;7.10;97.90
40287;DHT22;25998;46.604;13.610;2023-04-12T04:21:28;7.20;97.90
40287;DHT22;25998;46.604;13.610;2023-04-12T04:24:41;7.20;97.70
40287;DHT22;25998;46.604;13.610;2023-04-12T04:27:52;7.20;98.20
40287;DHT22;25998;46.604;13.610;2023-04-12T04:31:06;7.10;99.10
40287;DHT22;25998;46.604;13.610;2023-04-12T04:34:19;7.00;99.40
40287;DHT22;25998;46.604;13.610;2023-04-12T04:37:31;7.10;99.30
40287;DHT22;25998;46.604;13.610;2023-04-12T04:40:44;7.00;99.30
40287;DHT22;25998;46.604;13.610;2023-04-12T04:43:57;6.90;98.90
40287;DHT22;25998;46.604;13.610;2023-04-12T04:47:10;6.70;98.70
40287;DHT22;25998;46.604;13.610;2023-04-12T04:50:22;6.60;99.20
40287;DHT22;25998;46.604;13.610;2023-04-12T04:53:33;6.50;99.50
40287;DHT22;25998;46.604;13.610;2023-04-12T04:56:43;6.70;99.50
40287;DHT22;25998;46.604;13.610;2023-04-12T04:59:54;6.70;99.50
40287;DHT22;25998;46.604;13.610;2023-04-12T05:03:05;6.80;99.90
40287;DHT22;25998;46.604;13.610;2023-04-12T05:06:16;6.90;99.90
40287;DHT22;25998;46.604;13.610;2023-04-12T05:09:27;6.80;99.50
40287;DHT22;25998;46.604;13.610;2023-04-12T05:12:37;6.70;99.20
40287;DHT22;25998;46.604;13.610;2023-04-12T05:15:49;6.70;99.60
40287;DHT22;25998;46.604;13.610;2023-04-12T05:19:00;6.60;99.90
40287;DHT22;25998;46.604;13.610;2023-04-12T05:22:11;6.70;99.80
40287;DHT22;25998;46.604;13.610;2023-04-12T05:25:23;6.80;99.90
40287;DHT22;25998;46.604;13.610;2023-04-12T05:28:35;6.70;99.90
40287;DHT22;25998;46.604;13.610;2023-04-12T05:31:46;6.80;99.90
40287;DHT22;25998;46.604;13.610;2023-04-12T05:34:57;6.90;99.90
40287;DHT22;25998;46.604;13.610;2023-04-12T05:38:08;7.00;99.90
40287;DHT22;25998;46.604;13.610;2023-04-12T05:41:19;7.00;99.90
40287;DHT22;25998;46.604;13.610;2023-04-12T05:44:30;6.90;99.90
40287;DHT22;25998;46.604;13.610;2023-04-12T05:47:41;6.90;99.90
40287;DHT22;25998;46.604;13.610;2023-04-12T05:50:53;6.80;99.90
40287;DHT22;25998;46.604;13.610;2023-04-12T05:54:04;6.80;99.90
40287;DHT22;25998;46.604;13.610;2023-04-12T05:57:18;6.80;99.90
40287;DHT22;25998;46.604;13.610;2023-04-12T06:00:29;6.80;99.90
40287;DHT22;25998;46.604;13.610;2023-04-12T06:03:40;6.90;99.90
40287;DHT22;25998;46.604;13.610;2023-04-12T06:06:51;6.90;99.90
40287;DHT22;25998;46.604;13.610;2023-04-12T06:10:02;6.90;99.90
40287;DHT22;25998;46.604;13.610;2023-04-12T06:13:13;6.90;99.90
40287;DHT22;25998;46.604;13.610;2023-04-12T06:16:24;6.90;99.90
40287;DHT22;25998;46.604;13.610;2023-04-12T06:19:35;6.90;99.90
40287;DHT22;25998;46.604;13.610;2023-04-12T06:22:46;6.80;99.90
40287;DHT22;25998;46.604;13.610;2023-04-12T06:25:57;6.80;99.90
40287;DHT22;25998;46.604;13.610;2023-04-12T06:29:08;6.90;99.90
40287;DHT22;25998;46.604;13.610;2023-04-12T06:32:18;7.00;99.90
40287;DHT22;25998;46.604;13.610;2023-04-12T06:35:29;7.10;99.90
40287;DHT22;25998;46.604;13.610;2023-04-12T06:38:40;7.10;99.90
40287;DHT22;25998;46.604;13.610;2023-04-12T06:41:51;7.10;99.90
40287;DHT22;25998;46.604;13.610;2023-04-12T06:45:02;7.20;99.90
40287;DHT22;25998;46.604;13.610;2023-04-12T06:48:14;7.20;99.90
40287;DHT22;25998;46.604;13.610;2023-04-12T06:51:24;7.30;99.90
40287;DHT22;25998;46.604;13.610;2023-04-12T06:54:35;7.10;99.90
40287;DHT22;25998;46.604;13.610;2023-04-12T06:57:47;7.20;99.90
40287;DHT22;25998;46.604;13.610;2023-04-12T07:01:07;7.30;99.90
40287;DHT22;25998;46.604;13.610;2023-04-12T07:04:19;7.20;99.90
40287;DHT22;25998;46.604;13.610;2023-04-12T07:07:30;7.20;99.90
40287;DHT22;25998;46.604;13.610;2023-04-12T07:10:41;7.20;99.90
40287;DHT22;25998;46.604;13.610;2023-04-12T07:13:52;7.20;99.90
40287;DHT22;25998;46.604;13.610;2023-04-12T07:17:03;7.20;99.90
40287;DHT22;25998;46.604;13.610;2023-04-12T07:20:14;7.30;99.90
40287;DHT22;25998;46.604;13.610;2023-04-12T07:23:24;7.30;99.90
40287;DHT22;25998;46.604;13.610;2023-04-12T07:26:36;7.50;99.90
40287;DHT22;25998;46.604;13.610;2023-04-12T07:29:47;7.50;99.90
40287;DHT22;25998;46.604;13.610;2023-04-12T07:33:00;7.60;99.90
40287;DHT22;25998;46.604;13.610;2023-04-12T07:36:15;7.60;99.90
40287;DHT22;25998;46.604;13.610;2023-04-12T07:39:26;7.70;99.90
40287;DHT22;25998;46.604;13.610;2023-04-12T07:42:39;7.90;99.90
40287;DHT22;25998;46.604;13.610;2023-04-12T07:45:49;8.10;99.90
40287;DHT22;25998;46.604;13.610;2023-04-12T07:49:01;8.30;99.90
40287;DHT22;25998;46.604;13.610;2023-04-12T07:52:12;8.50;99.90
40287;DHT22;25998;46.604;13.610;2023-04-12T07:55:22;9.10;99.90
40287;DHT22;25998;46.604;13.610;2023-04-12T07:58:34;9.60;99.40
40287;DHT22;25998;46.604;13.610;2023-04-12T08:01:45;9.80;98.70
40287;DHT22;25998;46.604;13.610;2023-04-12T08:04:56;9.70;98.70
40287;DHT22;25998;46.604;13.610;2023-04-12T08:08:07;9.20;99.60
40287;DHT22;25998;46.604;13.610;2023-04-12T08:11:21;9.00;99.70
40287;DHT22;25998;46.604;13.610;2023-04-12T08:14:32;8.90;99.90
40287;DHT22;25998;46.604;13.610;2023-04-12T08:17:42;8.90;99.90
40287;DHT22;25998;46.604;13.610;2023-04-12T08:20:55;8.80;99.90
40287;DHT22;25998;46.604;13.610;2023-04-12T08:24:07;9.00;99.90
40287;DHT22;25998;46.604;13.610;2023-04-12T08:27:18;9.00;99.90
40287;DHT22;25998;46.604;13.610;2023-04-12T08:30:29;9.10;99.90
40287;DHT22;25998;46.604;13.610;2023-04-12T08:33:40;9.30;99.80
40287;DHT22;25998;46.604;13.610;2023-04-12T08:36:51;9.60;99.40
40287;DHT22;25998;46.604;13.610;2023-04-12T08:40:04;9.50;98.60
40287;DHT22;25998;46.604;13.610;2023-04-12T08:43:17;9.50;99.20
40287;DHT22;25998;46.604;13.610;2023-04-12T08:46:34;9.60;98.40
40287;DHT22;25998;46.604;13.610;2023-04-12T08:49:46;9.80;98.40
40287;DHT22;25998;46.604;13.610;2023-04-12T08:52:58;10.00;98.20
40287;DHT22;25998;46.604;13.610;2023-04-12T08:56:10;10.20;97.50
40287;DHT22;25998;46.604;13.610;2023-04-12T08:59:21;10.40;96.10
40287;DHT22;25998;46.604;13.610;2023-04-12T09:02:34;10.40;95.20
40287;DHT22;25998;46.604;13.610;2023-04-12T09:05:46;10.50;95.20
40287;DHT22;25998;46.604;13.610;2023-04-12T09:08:57;10.50;95.80
40287;DHT22;25998;46.604;13.610;2023-04-12T09:12:10;10.60;96.20
40287;DHT22;25998;46.604;13.610;2023-04-12T09:15:21;10.80;95.60
40287;DHT22;25998;46.604;13.610;2023-04-12T09:18:47;10.60;94.90
40287;DHT22;25998;46.604;13.610;2023-04-12T09:21:58;10.60;94.20
40287;DHT22;25998;46.604;13.610;2023-04-12T09:25:09;10.70;94.20
40287;DHT22;25998;46.604;13.610;2023-04-12T09:28:23;10.90;94.30
40287;DHT22;25998;46.604;13.610;2023-04-12T09:31:35;11.40;94.70
40287;DHT22;25998;46.604;13.610;2023-04-12T09:34:54;11.60;92.60
40287;DHT22;25998;46.604;13.610;2023-04-12T09:38:07;11.90;92.70
40287;DHT22;25998;46.604;13.610;2023-04-12T09:41:20;12.00;92.60
40287;DHT22;25998;46.604;13.610;2023-04-12T09:44:40;12.20;91.60
40287;DHT22;25998;46.604;13.610;2023-04-12T09:47:51;12.40;91.30
40287;DHT22;25998;46.604;13.610;2023-04-12T09:51:02;12.40;91.10
40287;DHT22;25998;46.604;13.610;2023-04-12T09:54:13;13.20;90.70
40287;DHT22;25998;46.604;13.610;2023-04-12T09:57:24;13.00;89.50
40287;DHT22;25998;46.604;13.610;2023-04-12T10:00:36;13.20;89.90
40287;DHT22;25998;46.604;13.610;2023-04-12T10:03:48;13.30;90.00
40287;DHT22;25998;46.604;13.610;2023-04-12T10:06:59;13.00;90.00
40287;DHT22;25998;46.604;13.610;2023-04-12T10:10:14;12.60;90.30
40287;DHT22;25998;46.604;13.610;2023-04-12T10:13:25;12.70;90.80
40287;DHT22;25998;46.604;13.610;2023-04-12T10:16:39;12.60;91.00
40287;DHT22;25998;46.604;13.610;2023-04-12T10:19:52;12.60;91.10
40287;DHT22;25998;46.604;13.610;2023-04-12T10:23:05;12.80;90.70
40287;DHT22;25998;46.604;13.610;2023-04-12T10:26:16;13.20;91.20
40287;DHT22;25998;46.604;13.610;2023-04-12T10:29:28;13.20;90.60
40287;DHT22;25998;46.604;13.610;2023-04-12T10:32:39;13.30;90.80
40287;DHT22;25998;46.604;13.610;2023-04-12T10:36:01;13.50;89.40
40287;DHT22;25998;46.604;13.610;2023-04-12T10:39:41;14.00;89.60
40287;DHT22;25998;46.604;13.610;2023-04-12T10:50:23;13.50;90.30
40287;DHT22;25998;46.604;13.610;2023-04-12T10:53:34;13.60;91.60
40287;DHT22;25998;46.604;13.610;2023-04-12T10:56:46;13.40;91.90
40287;DHT22;25998;46.604;13.610;2023-04-12T10:59:57;13.90;91.10
40287;DHT22;25998;46.604;13.610;2023-04-12T11:03:08;14.30;91.20
40287;DHT22;25998;46.604;13.610;2023-04-12T11:06:39;14.70;91.40
40287;DHT22;25998;46.604;13.610;2023-04-12T11:09:56;15.20;89.90
40287;DHT22;25998;46.604;13.610;2023-04-12T11:13:08;15.00;90.90
40287;DHT22;25998;46.604;13.610;2023-04-12T11:16:18;15.10;89.80
40287;DHT22;25998;46.604;13.610;2023-04-12T11:19:31;14.80;90.80
40287;DHT22;25998;46.604;13.610;2023-04-12T11:22:42;14.60;90.10
40287;DHT22;25998;46.604;13.610;2023-04-12T11:25:53;14.50;90.60
40287;DHT22;25998;46.604;13.610;2023-04-12T11:29:07;14.80;89.40
40287;DHT22;25998;46.604;13.610;2023-04-12T11:32:24;14.80;90.90
40287;DHT22;25998;46.604;13.610;2023-04-12T11:35:36;14.40;90.50
40287;DHT22;25998;46.604;13.610;2023-04-12T11:38:47;14.30;90.30
40287;DHT22;25998;46.604;13.610;2023-04-12T11:41:59;14.30;91.00
40287;DHT22;25998;46.604;13.610;2023-04-12T11:45:18;14.40;91.00
40287;DHT22;25998;46.604;13.610;2023-04-12T11:48:29;14.60;91.90
40287;DHT22;25998;46.604;13.610;2023-04-12T11:51:40;14.70;91.00
40287;DHT22;25998;46.604;13.610;2023-04-12T11:54:51;14.80;89.10
40287;DHT22;25998;46.604;13.610;2023-04-12T11:58:05;14.90;90.10
40287;DHT22;25998;46.604;13.610;2023-04-12T12:01:18;15.40;90.70
40287;DHT22;25998;46.604;13.610;2023-04-12T12:04:31;15.20;88.30
40287;DHT22;25998;46.604;13.610;2023-04-12T12:07:41;14.90;90.30
40287;DHT22;25998;46.604;13.610;2023-04-12T12:10:52;14.80;90.50
40287;DHT22;25998;46.604;13.610;2023-04-12T12:14:03;14.80;89.30
40287;DHT22;25998;46.604;13.610;2023-04-12T12:17:16;14.80;90.50
40287;DHT22;25998;46.604;13.610;2023-04-12T12:20:27;15.00;90.00
40287;DHT22;25998;46.604;13.610;2023-04-12T12:23:40;14.90;89.70
40287;DHT22;25998;46.604;13.610;2023-04-12T12:26:51;15.10;89.50
40287;DHT22;25998;46.604;13.610;2023-04-12T12:30:05;15.30;90.20
40287;DHT22;25998;46.604;13.610;2023-04-12T12:33:19;15.10;89.30
40287;DHT22;25998;46.604;13.610;2023-04-12T12:36:32;15.00;87.50
40287;DHT22;25998;46.604;13.610;2023-04-12T12:43:26;15.70;90.20
40287;DHT22;25998;46.604;13.610;2023-04-12T12:46:37;15.80;86.80
40287;DHT22;25998;46.604;13.610;2023-04-12T12:49:48;15.80;86.80
40287;DHT22;25998;46.604;13.610;2023-04-12T12:53:00;16.00;87.70
40287;DHT22;25998;46.604;13.610;2023-04-12T12:56:12;16.00;86.80
40287;DHT22;25998;46.604;13.610;2023-04-12T12:59:23;16.20;88.20
40287;DHT22;25998;46.604;13.610;2023-04-12T13:02:34;15.90;87.00
40287;DHT22;25998;46.604;13.610;2023-04-12T13:05:46;15.90;86.40
40287;DHT22;25998;46.604;13.610;2023-04-12T13:08:57;16.00;86.10
40287;DHT22;25998;46.604;13.610;2023-04-12T13:12:07;16.20;85.30
40287;DHT22;25998;46.604;13.610;2023-04-12T13:15:18;16.20;86.30
40287;DHT22;25998;46.604;13.610;2023-04-12T13:18:29;16.30;85.60
40287;DHT22;25998;46.604;13.610;2023-04-12T13:21:40;16.30;85.60
40287;DHT22;25998;46.604;13.610;2023-04-12T13:24:51;16.40;86.50
40287;DHT22;25998;46.604;13.610;2023-04-12T13:28:02;16.50;87.70
40287;DHT22;25998;46.604;13.610;2023-04-12T13:31:13;16.40;86.20
40287;DHT22;25998;46.604;13.610;2023-04-12T13:34:23;16.10;86.20
40287;DHT22;25998;46.604;13.610;2023-04-12T13:37:35;16.00;87.40
40287;DHT22;25998;46.604;13.610;2023-04-12T13:40:46;16.30;85.90
40287;DHT22;25998;46.604;13.610;2023-04-12T13:43:57;16.60;84.30
40287;DHT22;25998;46.604;13.610;2023-04-12T13:47:08;16.80;84.20
40287;DHT22;25998;46.604;13.610;2023-04-12T13:50:19;16.50;85.50
40287;DHT22;25998;46.604;13.610;2023-04-12T13:53:29;16.10;84.50
40287;DHT22;25998;46.604;13.610;2023-04-12T13:56:40;16.20;85.10
40287;DHT22;25998;46.604;13.610;2023-04-12T13:59:51;16.40;87.40
40287;DHT22;25998;46.604;13.610;2023-04-12T14:03:02;15.90;85.20
40287;DHT22;25998;46.604;13.610;2023-04-12T14:06:13;16.00;86.50
40287;DHT22;25998;46.604;13.610;2023-04-12T14:09:26;15.60;87.90
40287;DHT22;25998;46.604;13.610;2023-04-12T14:12:37;15.60;89.00
40287;DHT22;25998;46.604;13.610;2023-04-12T14:15:49;15.80;85.60
40287;DHT22;25998;46.604;13.610;2023-04-12T14:19:03;15.90;87.30
40287;DHT22;25998;46.604;13.610;2023-04-12T14:22:14;16.00;85.30
40287;DHT22;25998;46.604;13.610;2023-04-12T14:25:25;16.00;88.00
40287;DHT22;25998;46.604;13.610;2023-04-12T14:28:36;15.90;84.80
40287;DHT22;25998;46.604;13.610;2023-04-12T14:31:47;15.90;85.40
40287;DHT22;25998;46.604;13.610;2023-04-12T14:34:57;15.90;86.20
40287;DHT22;25998;46.604;13.610;2023-04-12T14:38:08;16.00;85.30
40287;DHT22;25998;46.604;13.610;2023-04-12T14:41:19;15.80;84.80
40287;DHT22;25998;46.604;13.610;2023-04-12T14:44:30;15.90;85.80
40287;DHT22;25998;46.604;13.610;2023-04-12T14:47:42;15.80;85.70
40287;DHT22;25998;46.604;13.610;2023-04-12T14:50:52;15.80;84.30
40287;DHT22;25998;46.604;13.610;2023-04-12T14:54:05;15.90;84.20
40287;DHT22;25998;46.604;13.610;2023-04-12T14:57:15;15.90;85.40
40287;DHT22;25998;46.604;13.610;2023-04-12T15:00:27;15.80;83.60
40287;DHT22;25998;46.604;13.610;2023-04-12T15:03:38;15.40;84.80
40287;DHT22;25998;46.604;13.610;2023-04-12T15:06:51;15.50;85.10
40287;DHT22;25998;46.604;13.610;2023-04-12T15:10:06;15.60;86.00
40287;DHT22;25998;46.604;13.610;2023-04-12T15:13:17;15.40;84.80
40287;DHT22;25998;46.604;13.610;2023-04-12T15:16:29;15.40;85.90
40287;DHT22;25998;46.604;13.610;2023-04-12T15:19:39;15.30;84.70
40287;DHT22;25998;46.604;13.610;2023-04-12T15:22:50;15.10;85.50
40287;DHT22;25998;46.604;13.610;2023-04-12T15:26:01;15.20;84.90
40287;DHT22;25998;46.604;13.610;2023-04-12T15:29:13;15.20;85.00
40287;DHT22;25998;46.604;13.610;2023-04-12T15:32:26;15.20;85.20
40287;DHT22;25998;46.604;13.610;2023-04-12T15:35:37;15.10;85.10
40287;DHT22;25998;46.604;13.610;2023-04-12T15:38:48;15.10;85.30
40287;DHT22;25998;46.604;13.610;2023-04-12T15:41:59;15.00;85.80
40287;DHT22;25998;46.604;13.610;2023-04-12T15:45:10;15.00;84.80
40287;DHT22;25998;46.604;13.610;2023-04-12T15:48:22;15.10;85.50
40287;DHT22;25998;46.604;13.610;2023-04-12T15:51:33;15.00;84.70
40287;DHT22;25998;46.604;13.610;2023-04-12T15:54:45;15.10;84.70
40287;DHT22;25998;46.604;13.610;2023-04-12T15:57:55;15.10;85.10
40287;DHT22;25998;46.604;13.610;2023-04-12T16:01:06;15.10;85.20
40287;DHT22;25998;46.604;13.610;2023-04-12T16:04:17;15.30;85.70
40287;DHT22;25998;46.604;13.610;2023-04-12T16:07:28;15.30;84.80
40287;DHT22;25998;46.604;13.610;2023-04-12T16:10:39;15.30;84.20
40287;DHT22;25998;46.604;13.610;2023-04-12T16:13:51;15.30;84.40
40287;DHT22;25998;46.604;13.610;2023-04-12T16:17:02;15.30;85.00
40287;DHT22;25998;46.604;13.610;2023-04-12T16:20:16;15.10;85.60
40287;DHT22;25998;46.604;13.610;2023-04-12T16:23:30;15.00;85.70
40287;DHT22;25998;46.604;13.610;2023-04-12T16:26:42;15.00;84.80
40287;DHT22;25998;46.604;13.610;2023-04-12T16:29:54;14.90;84.60
40287;DHT22;25998;46.604;13.610;2023-04-12T16:33:05;14.90;84.70
40287;DHT22;25998;46.604;13.610;2023-04-12T16:36:17;14.90;84.10
40287;DHT22;25998;46.604;13.610;2023-04-12T16:39:28;15.00;87.10
40287;DHT22;25998;46.604;13.610;2023-04-12T16:42:44;14.90;85.60
40287;DHT22;25998;46.604;13.610;2023-04-12T16:45:56;14.80;87.50
40287;DHT22;25998;46.604;13.610;2023-04-12T16:49:07;14.80;86.30
40287;DHT22;25998;46.604;13.610;2023-04-12T16:52:20;14.80;86.50
40287;DHT22;25998;46.604;13.610;2023-04-12T16:55:31;14.80;87.40
40287;DHT22;25998;46.604;13.610;2023-04-12T16:58:43;14.70;87.90
40287;DHT22;25998;46.604;13.610;2023-04-12T17:01:53;14.60;87.20
40287;DHT22;25998;46.604;13.610;2023-04-12T17:05:05;14.50;90.30
40287;DHT22;25998;46.604;13.610;2023-04-12T17:08:16;14.30;90.80
40287;DHT22;25998;46.604;13.610;2023-04-12T17:11:27;14.20;91.30
40287;DHT22;25998;46.604;13.610;2023-04-12T17:14:38;14.10;90.60
40287;DHT22;25998;46.604;13.610;2023-04-12T17:17:51;14.00;90.90
40287;DHT22;25998;46.604;13.610;2023-04-12T17:21:02;14.10;91.10
40287;DHT22;25998;46.604;13.610;2023-04-12T17:24:14;14.00;91.00
40287;DHT22;25998;46.604;13.610;2023-04-12T17:27:24;13.90;91.20
40287;DHT22;25998;46.604;13.610;2023-04-12T17:30:35;14.00;91.20
40287;DHT22;25998;46.604;13.610;2023-04-12T17:33:46;13.70;91.40
40287;DHT22;25998;46.604;13.610;2023-04-12T17:36:57;13.60;91.50
40287;DHT22;25998;46.604;13.610;2023-04-12T17:40:08;13.60;91.50
40287;DHT22;25998;46.604;13.610;2023-04-12T17:43:23;13.50;91.80
40287;DHT22;25998;46.604;13.610;2023-04-12T17:46:34;13.20;91.90
40287;DHT22;25998;46.604;13.610;2023-04-12T17:49:45;13.00;92.00
40287;DHT22;25998;46.604;13.610;2023-04-12T17:52:56;12.90;92.10
40287;DHT22;25998;46.604;13.610;2023-04-12T17:56:09;12.80;92.30
40287;DHT22;25998;46.604;13.610;2023-04-12T17:59:20;12.70;92.10
40287;DHT22;25998;46.604;13.610;2023-04-12T18:02:32;12.60;92.60
40287;DHT22;25998;46.604;13.610;2023-04-12T18:05:42;12.70;92.60
40287;DHT22;25998;46.604;13.610;2023-04-12T18:08:55;12.60;92.60
40287;DHT22;25998;46.604;13.610;2023-04-12T18:12:06;12.40;93.10
40287;DHT22;25998;46.604;13.610;2023-04-12T18:15:17;12.30;93.40
40287;DHT22;25998;46.604;13.610;2023-04-12T18:18:28;12.30;93.20
40287;DHT22;25998;46.604;13.610;2023-04-12T18:21:38;12.40;93.20
40287;DHT22;25998;46.604;13.610;2023-04-12T18:24:49;12.40;93.60
40287;DHT22;25998;46.604;13.610;2023-04-12T18:28:00;12.40;93.50
40287;DHT22;25998;46.604;13.610;2023-04-12T18:31:12;12.30;93.50
40287;DHT22;25998;46.604;13.610;2023-04-12T18:34:23;12.30;93.40
40287;DHT22;25998;46.604;13.610;2023-04-12T18:37:33;12.20;93.30
40287;DHT22;25998;46.604;13.610;2023-04-12T18:40:44;12.10;93.80
40287;DHT22;25998;46.604;13.610;2023-04-12T18:43:55;12.10;93.70
40287;DHT22;25998;46.604;13.610;2023-04-12T18:47:06;11.90;93.50
40287;DHT22;25998;46.604;13.610;2023-04-12T18:50:17;11.90;93.60
40287;DHT22;25998;46.604;13.610;2023-04-12T18:53:29;11.90;93.70
40287;DHT22;25998;46.604;13.610;2023-04-12T18:56:39;11.80;93.70
40287;DHT22;25998;46.604;13.610;2023-04-12T18:59:51;11.70;93.70
40287;DHT22;25998;46.604;13.610;2023-04-12T19:03:02;11.70;93.90
40287;DHT22;25998;46.604;13.610;2023-04-12T19:06:13;11.60;93.80
40287;DHT22;25998;46.604;13.610;2023-04-12T19:09:24;11.60;94.10
40287;DHT22;25998;46.604;13.610;2023-04-12T19:12:36;11.60;94.10
40287;DHT22;25998;46.604;13.610;2023-04-12T19:15:46;11.50;94.10
40287;DHT22;25998;46.604;13.610;2023-04-12T19:18:57;11.70;93.90
40287;DHT22;25998;46.604;13.610;2023-04-12T19:22:09;11.50;94.50
40287;DHT22;25998;46.604;13.610;2023-04-12T19:25:20;11.40;94.30
40287;DHT22;25998;46.604;13.610;2023-04-12T19:28:31;11.60;94.20
40287;DHT22;25998;46.604;13.610;2023-04-12T19:31:42;11.50;94.00
40287;DHT22;25998;46.604;13.610;2023-04-12T19:34:55;11.40;94.30
40287;DHT22;25998;46.604;13.610;2023-04-12T19:38:06;11.30;94.10
40287;DHT22;25998;46.604;13.610;2023-04-12T19:41:17;11.30;94.30
40287;DHT22;25998;46.604;13.610;2023-04-12T19:44:29;11.50;94.40
40287;DHT22;25998;46.604;13.610;2023-04-12T19:47:40;11.60;94.10
40287;DHT22;25998;46.604;13.610;2023-04-12T19:50:54;11.40;94.40
40287;DHT22;25998;46.604;13.610;2023-04-12T19:54:05;11.30;94.70
40287;DHT22;25998;46.604;13.610;2023-04-12T19:57:19;11.50;94.50
40287;DHT22;25998;46.604;13.610;2023-04-12T20:00:30;11.50;94.40
40287;DHT22;25998;46.604;13.610;2023-04-12T20:03:41;11.20;94.50
40287;DHT22;25998;46.604;13.610;2023-04-12T20:06:55;11.10;94.70
40287;DHT22;25998;46.604;13.610;2023-04-12T20:10:06;11.00;95.10
40287;DHT22;25998;46.604;13.610;2023-04-12T20:13:19;11.00;94.80
40287;DHT22;25998;46.604;13.610;2023-04-12T20:16:30;10.90;95.00